Time;durP1;ratioP1;P1;durP2;ratioP2;P2;SDS_P1;SDS_P2;PMS_P1;PMS_P2;Temp;Humidity;BMP_temperature;BMP_pressure;BME280_temperature;BME280_humidity;BME280_pressure;Samples;Min_cycle;Max_cycle;Signal;HPM_P1;HPM_P2
2021/03/02 00:02:15;;;;;;;136.17;76.20;;;;;;;-0.75;79.61;100845.29;123770;1102;64901;-78
2021/03/02 00:04:46;;;;;;;150.37;81.60;;;;;;;-0.80;79.50;100849.61;123427;1102;64841;-78
2021/03/02 00:07:16;;;;;;;159.25;81.90;;;;;;;-0.91;80.43;100846.89;123430;1102;64892;-77
2021/03/02 00:09:44;;;;;;;174.70;91.10;;;;;;;-1.00;80.29;100849.40;123802;1102;64943;-78
2021/03/02 00:12:10;;;;;;;173.37;93.97;;;;;;;-1.09;80.29;100858.05;123814;1102;64861;-77
2021/03/02 00:14:37;;;;;;;174.17;97.67;;;;;;;-1.10;80.44;100861.53;123385;1102;65036;-78
2021/03/02 00:17:13;;;;;;;170.70;95.73;;;;;;;-1.17;80.12;100859.70;123747;1102;64881;-78
2021/03/02 00:19:46;;;;;;;181.40;96.07;;;;;;;-1.21;80.74;100861.42;123755;1102;64934;-78
2021/03/02 00:22:27;;;;;;;174.77;97.77;;;;;;;-1.25;80.04;100862.23;123794;1102;64956;-79
2021/03/02 00:24:57;;;;;;;178.67;95.47;;;;;;;-1.27;80.43;100863.08;123775;1102;64937;-78
2021/03/02 00:27:24;;;;;;;179.72;98.40;;;;;;;-1.24;80.98;100866.59;123753;1102;64911;-77
2021/03/02 00:29:52;;;;;;;185.53;100.10;;;;;;;-1.24;80.11;100865.72;123782;1102;64854;-76
2021/03/02 00:32:19;;;;;;;190.87;103.27;;;;;;;-1.25;80.30;100863.98;123751;1102;64911;-76
2021/03/02 00:34:46;;;;;;;182.93;104.50;;;;;;;-1.23;80.84;100864.88;123789;1102;64933;-76
2021/03/02 00:37:13;;;;;;;199.23;108.47;;;;;;;-1.20;80.31;100863.16;123752;1102;64838;-78
2021/03/02 00:39:40;;;;;;;215.03;117.47;;;;;;;-1.20;80.47;100854.45;123780;1102;64908;-77
2021/03/02 00:42:06;;;;;;;211.45;113.40;;;;;;;-1.22;80.59;100862.27;123763;1102;64937;-78
2021/03/02 00:44:33;;;;;;;194.37;108.03;;;;;;;-1.22;80.34;100864.88;123718;1102;64882;-77
2021/03/02 00:46:59;;;;;;;190.47;102.90;;;;;;;-1.24;80.53;100857.87;123764;1102;64828;-77
2021/03/02 00:49:26;;;;;;;198.57;107.07;;;;;;;-1.19;80.53;100857.06;123778;1102;64940;-77
2021/03/02 00:51:52;;;;;;;213.27;115.27;;;;;;;-1.22;81.15;100864.01;123359;1105;64989;-78
2021/03/02 00:54:18;;;;;;;230.70;119.17;;;;;;;-1.15;80.74;100857.99;123824;1102;64905;-77
2021/03/02 00:56:45;;;;;;;213.68;115.65;;;;;;;-1.11;81.29;100854.53;123803;1102;64959;-79
2021/03/02 00:59:12;;;;;;;211.27;119.77;;;;;;;-1.17;81.04;100849.24;123732;1102;64882;-77
2021/03/02 01:01:38;;;;;;;204.47;115.85;;;;;;;-1.20;80.44;100843.98;123742;1102;64905;-77
2021/03/02 01:04:05;;;;;;;242.03;131.97;;;;;;;-1.23;80.75;100842.21;123745;1101;65320;-78
2021/03/02 01:06:32;;;;;;;244.67;126.70;;;;;;;-1.28;80.92;100841.28;123742;1101;64885;-78
2021/03/02 01:08:58;;;;;;;247.50;131.00;;;;;;;-1.34;80.96;100834.25;123747;1102;64875;-76
2021/03/02 01:11:24;;;;;;;251.60;128.57;;;;;;;-1.42;80.61;100838.52;123776;1102;64848;-77
2021/03/02 01:13:51;;;;;;;254.63;131.07;;;;;;;-1.48;80.91;100835.81;123820;1102;64873;-77
2021/03/02 01:16:18;;;;;;;271.90;134.53;;;;;;;-1.50;81.26;100839.27;123808;1102;64902;-77
2021/03/02 01:18:44;;;;;;;245.83;128.20;;;;;;;-1.52;81.02;100836.66;123457;1102;64956;-77
2021/03/02 01:21:12;;;;;;;279.90;139.50;;;;;;;-1.52;80.68;100827.94;123721;1102;65016;-78
2021/03/02 01:23:39;;;;;;;269.80;143.23;;;;;;;-1.51;81.47;100832.30;123836;1102;64845;-78
2021/03/02 01:26:05;;;;;;;281.20;146.03;;;;;;;-1.50;81.88;100834.94;123783;1102;64888;-78
2021/03/02 01:28:31;;;;;;;284.57;148.40;;;;;;;-1.45;81.64;100827.13;123802;1102;65008;-77
2021/03/02 01:30:58;;;;;;;286.83;147.80;;;;;;;-1.46;82.01;100820.16;123776;1102;64907;-77
2021/03/02 01:33:24;;;;;;;297.87;154.87;;;;;;;-1.41;81.91;100808.88;123393;1102;64901;-77
2021/03/02 01:35:50;;;;;;;283.55;144.95;;;;;;;-1.38;82.26;100800.20;123406;1101;64896;-77
2021/03/02 01:38:17;;;;;;;292.03;146.00;;;;;;;-1.42;82.26;100806.23;123390;1102;64934;-77
2021/03/02 01:40:43;;;;;;;301.67;149.53;;;;;;;-1.47;82.09;100802.73;123769;1102;64876;-77
2021/03/02 01:43:13;;;;;;;299.53;151.50;;;;;;;-1.48;81.79;100807.05;123778;1101;65029;-76
2021/03/02 01:45:39;;;;;;;302.65;156.90;;;;;;;-1.44;81.88;100802.75;123445;1102;64994;-77
2021/03/02 01:48:06;;;;;;;287.07;147.13;;;;;;;-1.38;82.36;100801.06;123425;1102;64928;-78
2021/03/02 01:50:33;;;;;;;288.40;149.10;;;;;;;-1.35;82.27;100801.09;123810;1102;64912;-76
2021/03/02 01:52:59;;;;;;;275.70;139.10;;;;;;;-1.34;82.14;100796.77;123371;1102;64908;-77
2021/03/02 01:55:25;;;;;;;273.60;137.23;;;;;;;-1.35;82.51;100798.48;123753;1102;64869;-77
2021/03/02 01:57:52;;;;;;;277.40;138.95;;;;;;;-1.34;82.26;100794.16;123432;1102;64981;-78
2021/03/02 02:00:33;;;;;;;299.90;148.80;;;;;;;-1.29;82.54;100794.17;123776;1102;64914;-77
2021/03/02 02:03:18;;;;;;;282.93;141.00;;;;;;;-1.27;82.86;100797.69;123819;1102;64889;-78
2021/03/02 02:05:52;;;;;;;281.00;145.45;;;;;;;-1.24;82.17;100789.87;123739;1102;65288;-78
2021/03/02 02:08:27;;;;;;;273.77;141.83;;;;;;;-1.23;83.02;100799.48;123785;1102;65044;-78
2021/03/02 02:11:03;;;;;;;266.13;135.93;;;;;;;-1.21;83.04;100790.80;123367;1105;64997;-78
2021/03/02 02:13:44;;;;;;;263.57;137.43;;;;;;;-1.19;82.87;100789.05;123783;1102;64937;-77
2021/03/02 02:16:13;;;;;;;275.07;137.73;;;;;;;-1.18;82.94;100777.73;123429;1102;64968;-77
2021/03/02 02:18:44;;;;;;;256.65;135.40;;;;;;;-1.12;83.46;100785.63;123385;1102;64960;-77
2021/03/02 02:21:39;;;;;;;259.95;138.25;;;;;;;-1.06;83.45;100778.70;123428;1106;64911;-77
2021/03/02 02:24:23;;;;;;;229.43;124.43;;;;;;;-0.99;83.13;100781.39;123749;1102;64924;-77
2021/03/02 02:26:57;;;;;;;233.20;120.07;;;;;;;-0.96;83.17;100776.18;123812;1101;64934;-77
2021/03/02 02:29:30;;;;;;;250.67;129.17;;;;;;;-0.91;83.03;100776.23;123427;1102;64941;-77
2021/03/02 02:32:02;;;;;;;229.80;122.77;;;;;;;-0.92;82.72;100780.59;123775;1101;65042;-77
2021/03/02 02:34:32;;;;;;;257.03;130.70;;;;;;;-0.96;82.65;100775.31;123453;1102;64939;-77
2021/03/02 02:36:59;;;;;;;;;;;;;;;-1.00;82.95;100779.66;123883;1102;64949;-78
2021/03/02 02:39:28;;;;;;;239.03;130.43;;;;;;;-1.02;83.27;100772.66;123785;1102;64908;-78
2021/03/02 02:41:55;;;;;;;235.43;124.60;;;;;;;-0.98;83.17;100775.28;123822;1102;64924;-78
2021/03/02 02:44:24;;;;;;;239.37;125.53;;;;;;;-0.91;83.05;100776.23;123459;1102;65118;-78
2021/03/02 02:46:54;;;;;;;235.17;122.00;;;;;;;-0.88;82.98;100771.02;123815;1102;64911;-77
2021/03/02 02:49:21;;;;;;;233.43;125.03;;;;;;;-0.87;83.04;100774.50;123416;1102;64961;-77
2021/03/02 02:51:48;;;;;;;212.30;114.53;;;;;;;-0.87;83.69;100764.03;123834;1102;64886;-77
2021/03/02 02:54:16;;;;;;;209.90;118.83;;;;;;;-0.90;83.30;100762.27;123775;1102;64911;-78
2021/03/02 02:56:44;;;;;;;207.40;111.90;;;;;;;-0.94;82.86;100760.50;123839;1102;64911;-78
2021/03/02 02:59:38;;;;;;;209.63;114.73;;;;;;;-0.96;83.02;100763.09;123815;1102;64910;-78
2021/03/02 03:02:09;;;;;;;220.70;110.73;;;;;;;-0.96;83.53;100773.56;123772;1102;64934;-77
2021/03/02 03:05:00;;;;;;;205.87;110.97;;;;;;;-0.94;83.53;100761.38;123840;1102;64934;-77
2021/03/02 03:07:37;;;;;;;201.87;107.07;;;;;;;-0.93;83.59;100770.97;123832;1101;64937;-77
2021/03/02 03:10:06;;;;;;;187.57;102.27;;;;;;;-0.95;83.95;100764.88;123810;1102;65000;-78
2021/03/02 03:12:36;;;;;;;181.60;100.50;;;;;;;-0.96;83.62;100762.23;123841;1102;64883;-78
2021/03/02 03:15:06;;;;;;;169.83;90.77;;;;;;;-0.95;83.61;100769.20;123780;1102;64962;-78
2021/03/02 03:17:38;;;;;;;186.60;100.70;;;;;;;-0.98;83.61;100772.67;123803;1102;64889;-77
2021/03/02 03:20:07;;;;;;;166.87;89.90;;;;;;;-0.98;84.04;100766.56;123412;1102;65047;-77
2021/03/02 03:22:34;;;;;;;167.37;92.60;;;;;;;-0.97;83.79;100766.59;123408;1101;65011;-77
2021/03/02 03:25:03;;;;;;;172.70;97.27;;;;;;;-0.98;83.46;100763.95;123764;1102;64908;-77
2021/03/02 03:27:32;;;;;;;168.03;92.13;;;;;;;-0.95;84.10;100767.48;123483;1102;64869;-77
2021/03/02 03:30:01;;;;;;;172.00;90.43;;;;;;;-0.94;83.88;100768.36;123784;1102;64933;-77
2021/03/02 03:32:29;;;;;;;174.13;92.53;;;;;;;-0.92;83.64;100777.11;123841;1100;64927;-76
2021/03/02 03:34:59;;;;;;;201.30;107.40;;;;;;;-0.89;84.42;100775.38;123744;1102;64885;-77
2021/03/02 03:37:25;;;;;;;168.23;89.87;;;;;;;-0.89;84.57;100771.89;123771;1102;64904;-78
2021/03/02 03:39:52;;;;;;;140.70;79.03;;;;;;;-0.92;84.33;100771.88;123420;1102;64918;-77
2021/03/02 03:42:18;;;;;;;144.97;80.10;;;;;;;-0.92;84.49;100770.13;123443;1102;64914;-77
2021/03/02 03:44:44;;;;;;;132.65;72.55;;;;;;;-0.87;84.34;100767.52;123834;1102;65222;-79
2021/03/02 03:47:10;;;;;;;134.63;68.10;;;;;;;-0.89;84.40;100757.06;123830;1102;64949;-80
2021/03/02 03:49:37;;;;;;;132.75;72.37;;;;;;;-0.89;84.42;100761.42;123839;1102;64934;-78
2021/03/02 03:52:07;;;;;;;122.90;65.63;;;;;;;-0.91;84.24;100766.63;123785;1102;65218;-77
2021/03/02 03:54:34;;;;;;;118.20;66.30;;;;;;;-0.94;85.01;100765.74;123778;1102;64908;-78
2021/03/02 03:57:02;;;;;;;118.50;63.95;;;;;;;-0.97;85.02;100769.20;123770;1102;64905;-77
2021/03/02 03:59:29;;;;;;;114.23;62.30;;;;;;;-0.98;84.84;100782.27;123349;1102;64994;-78
2021/03/02 04:01:57;;;;;;;116.90;60.60;;;;;;;-1.03;84.79;100778.73;123773;1102;64902;-77
2021/03/02 04:04:25;;;;;;;125.93;65.93;;;;;;;-1.07;84.58;100782.20;123782;1102;64847;-77
2021/03/02 04:06:54;;;;;;;136.35;70.50;;;;;;;-1.12;84.64;100777.78;123442;1102;64994;-76
2021/03/02 04:09:22;;;;;;;114.53;61.60;;;;;;;-1.15;84.55;100782.13;123787;1102;64882;-77
2021/03/02 04:11:48;;;;;;;107.23;61.37;;;;;;;-1.20;85.29;100781.20;123805;1102;64905;-76
2021/03/02 04:14:14;;;;;;;113.10;62.00;;;;;;;-1.24;85.68;100779.41;123818;1102;64908;-77
2021/03/02 04:16:42;;;;;;;123.50;65.20;;;;;;;-1.24;84.85;100775.05;123398;1102;64968;-76
2021/03/02 04:19:09;;;;;;;116.90;61.07;;;;;;;-1.26;85.59;100778.50;123454;1102;64962;-77
2021/03/02 04:21:36;;;;;;;117.50;60.65;;;;;;;-1.30;85.48;100785.45;123793;1101;64991;-78
2021/03/02 04:24:02;;;;;;;121.10;61.87;;;;;;;-1.30;85.00;100775.00;123754;1102;64892;-78
2021/03/02 04:26:29;;;;;;;127.05;64.95;;;;;;;-1.28;85.45;100770.66;123779;1102;64987;-77
2021/03/02 04:28:55;;;;;;;119.80;61.65;;;;;;;-1.27;85.68;100768.92;123781;1102;64895;-77
2021/03/02 04:31:21;;;;;;;101.95;55.50;;;;;;;-1.30;85.06;100763.66;123457;1102;64918;-77
2021/03/02 04:33:48;;;;;;;109.47;55.63;;;;;;;-1.34;85.42;100762.77;123814;1102;64907;-77
2021/03/02 04:36:14;;;;;;;104.30;54.33;;;;;;;-1.34;85.51;100765.38;123772;1102;64905;-77
2021/03/02 04:38:40;;;;;;;109.67;57.43;;;;;;;-1.31;85.64;100765.41;123740;1102;64937;-77
2021/03/02 04:41:07;;;;;;;96.73;50.73;;;;;;;-1.32;85.28;100761.02;123759;1102;64985;-75
2021/03/02 04:43:33;;;;;;;100.73;52.83;;;;;;;-1.31;84.67;100764.53;123404;1101;65017;-76
2021/03/02 04:45:59;;;;;;;101.47;54.50;;;;;;;-1.31;84.92;100768.02;123769;1102;64908;-77
2021/03/02 04:48:26;;;;;;;109.80;57.60;;;;;;;-1.31;85.28;100762.79;123766;1102;64972;-77
2021/03/02 04:50:52;;;;;;;106.83;57.67;;;;;;;-1.29;85.62;100770.63;123805;1102;65215;-78
2021/03/02 04:53:18;;;;;;;116.70;61.15;;;;;;;-1.27;85.47;100772.41;123433;1102;64917;-77
2021/03/02 04:55:45;;;;;;;111.67;58.13;;;;;;;-1.28;85.49;100780.25;123783;1102;64911;-77
2021/03/02 04:58:11;;;;;;;104.93;55.60;;;;;;;-1.35;85.16;100781.92;123450;1101;64905;-77
2021/03/02 05:00:37;;;;;;;99.20;50.40;;;;;;;-1.36;85.14;100770.58;123747;1102;64934;-77
2021/03/02 05:03:04;;;;;;;103.20;51.07;;;;;;;-1.41;84.59;100769.66;123786;1102;64914;-76
2021/03/02 05:05:30;;;;;;;97.40;51.23;;;;;;;-1.41;84.62;100761.81;123462;1102;65023;-77
2021/03/02 05:07:56;;;;;;;99.92;50.28;;;;;;;-1.42;84.80;100772.25;123412;1102;64931;-78
2021/03/02 05:10:23;;;;;;;95.73;50.97;;;;;;;-1.41;85.04;100771.41;123757;1102;65030;-78
2021/03/02 05:12:50;;;;;;;101.70;52.23;;;;;;;-1.40;85.37;100774.02;123767;1102;65411;-77
2021/03/02 05:15:16;;;;;;;98.10;51.70;;;;;;;-1.39;85.21;100765.33;123405;1102;65113;-77
2021/03/02 05:17:42;;;;;;;99.53;49.67;;;;;;;-1.39;84.75;100772.30;123805;1102;64920;-77
2021/03/02 05:20:09;;;;;;;89.97;49.57;;;;;;;-1.39;84.82;100767.08;123829;1102;64905;-77
2021/03/02 05:22:36;;;;;;;91.37;49.57;;;;;;;-1.39;85.09;100761.84;123767;1102;65351;-78
2021/03/02 05:25:04;;;;;;;99.57;51.43;;;;;;;-1.35;85.32;100767.09;123767;1102;64965;-78
2021/03/02 05:27:30;;;;;;;95.10;49.90;;;;;;;-1.29;85.35;100770.63;123414;1103;64927;-77
2021/03/02 05:29:56;;;;;;;96.65;50.35;;;;;;;-1.24;85.38;100769.81;123375;1102;65240;-76
2021/03/02 05:32:23;;;;;;;88.13;46.37;;;;;;;-1.20;84.93;100776.84;123382;1102;64889;-78
2021/03/02 05:34:50;;;;;;;89.53;46.80;;;;;;;-1.16;85.34;100780.35;123393;1102;64886;-78
2021/03/02 05:37:17;;;;;;;95.17;47.90;;;;;;;-1.12;84.88;100775.17;123460;1102;64939;-77
2021/03/02 05:39:43;;;;;;;91.63;45.95;;;;;;;-1.01;84.91;100777.02;123442;1102;65029;-77
2021/03/02 05:42:09;;;;;;;99.95;48.90;;;;;;;-0.96;85.09;100777.93;123836;1102;64908;-77
2021/03/02 05:44:35;;;;;;;90.40;46.13;;;;;;;-0.92;85.19;100780.59;123451;1102;64876;-77
2021/03/02 05:47:03;;;;;;;102.77;49.87;;;;;;;-0.85;85.26;100778.02;123795;1102;65023;-77
2021/03/02 05:49:30;;;;;;;86.80;47.77;;;;;;;-0.81;84.98;100774.58;123442;1102;64895;-77
2021/03/02 05:51:57;;;;;;;90.57;46.50;;;;;;;-0.76;84.78;100762.40;123754;1102;64905;-77
2021/03/02 05:54:23;;;;;;;96.77;48.77;;;;;;;-0.68;85.49;100766.81;123431;1102;64981;-77
2021/03/02 05:56:50;;;;;;;95.93;48.83;;;;;;;-0.64;84.63;100765.09;123855;1102;64942;-77
2021/03/02 05:59:17;;;;;;;88.40;45.73;;;;;;;-0.58;85.35;100766.86;123391;1102;65215;-77
2021/03/02 06:01:43;;;;;;;102.73;50.17;;;;;;;-0.56;84.65;100766.02;123783;1102;64940;-76
2021/03/02 06:04:16;;;;;;;105.00;53.83;;;;;;;-0.55;85.17;100770.41;123365;1102;65074;-77
2021/03/02 06:06:43;;;;;;;104.43;54.30;;;;;;;-0.54;84.88;100772.14;123401;1102;64950;-77
2021/03/02 06:09:09;;;;;;;105.83;51.70;;;;;;;-0.45;85.30;100784.41;123835;1102;64991;-77
2021/03/02 06:11:36;;;;;;;96.47;50.17;;;;;;;-0.39;84.60;100780.98;123803;1102;65051;-78
2021/03/02 06:14:25;;;;;;;105.27;50.73;;;;;;;-0.32;84.68;100777.52;123801;1102;64908;-78
2021/03/02 06:16:52;;;;;;;104.80;49.17;;;;;;;-0.30;84.93;100778.41;123399;1102;64926;-77
2021/03/02 06:19:35;;;;;;;97.40;49.17;;;;;;;-0.28;84.74;100776.68;123736;1102;64944;-77
2021/03/02 06:22:03;;;;;;;99.63;49.07;;;;;;;-0.23;84.85;100775.83;123478;1102;64949;-77
2021/03/02 06:24:40;;;;;;;93.27;49.93;;;;;;;-0.18;84.73;100773.25;123367;1105;64912;-77
2021/03/02 06:27:13;;;;;;;97.77;50.20;;;;;;;-0.09;84.61;100773.28;123807;1101;64829;-78
2021/03/02 06:29:40;;;;;;;92.50;48.60;;;;;;;-0.01;85.10;100768.08;123434;1102;64835;-78
2021/03/02 06:32:08;;;;;;;95.60;49.73;;;;;;;0.09;84.27;100771.63;123811;1102;64888;-76
2021/03/02 06:34:34;;;;;;;97.00;50.50;;;;;;;0.18;85.06;100774.27;123773;1102;64953;-78
2021/03/02 06:37:04;;;;;;;95.60;46.70;;;;;;;0.20;84.25;100775.16;123808;1102;64924;-77
2021/03/02 06:39:42;;;;;;;99.50;48.30;;;;;;;0.29;84.08;100775.20;123547;1103;64898;-77
2021/03/02 06:42:17;;;;;;;99.70;49.90;;;;;;;0.32;84.31;100775.21;123825;1102;64905;-78
2021/03/02 06:44:45;;;;;;;92.13;45.73;;;;;;;0.38;84.30;100774.35;123485;1102;64931;-77
2021/03/02 06:47:13;;;;;;;92.13;45.40;;;;;;;0.42;84.50;100773.47;123775;1102;64908;-77
2021/03/02 06:49:46;;;;;;;90.20;46.67;;;;;;;0.53;84.07;100778.78;123791;1102;65052;-77
2021/03/02 06:52:12;;;;;;;85.25;45.45;;;;;;;0.58;84.51;100774.39;123770;1102;64908;-76
2021/03/02 06:54:39;;;;;;;92.27;46.17;;;;;;;0.59;84.49;100781.41;123779;1102;64889;-78
2021/03/02 06:57:06;;;;;;;95.77;46.20;;;;;;;0.62;84.15;100774.41;123757;1102;64917;-78
2021/03/02 06:59:32;;;;;;;85.20;43.40;;;;;;;0.68;83.88;100773.54;123798;1101;64895;-78
2021/03/02 07:01:59;;;;;;;96.23;46.30;;;;;;;0.67;83.63;100777.05;123756;1102;65091;-78
2021/03/02 07:04:30;;;;;;;87.83;44.43;;;;;;;0.70;83.59;100782.30;123769;1102;64994;-77
2021/03/02 07:07:04;;;;;;;74.23;40.60;;;;;;;0.74;83.63;100777.92;123784;1102;65416;-77
2021/03/02 07:09:30;;;;;;;75.27;43.87;;;;;;;0.77;83.42;100775.33;123447;1102;64882;-76
2021/03/02 07:12:01;;;;;;;83.90;42.57;;;;;;;0.82;83.68;100771.83;123756;1102;65322;-77
2021/03/02 07:14:28;;;;;;;80.27;43.07;;;;;;;0.85;83.44;100776.21;123848;1101;65075;-77
2021/03/02 07:16:56;;;;;;;82.75;43.05;;;;;;;0.87;83.61;100777.09;123788;1102;64936;-77
2021/03/02 07:19:23;;;;;;;73.33;40.00;;;;;;;0.87;83.66;100771.84;123844;1102;64992;-77
2021/03/02 07:21:54;;;;;;;78.13;41.93;;;;;;;0.86;83.50;100772.70;123782;1101;64892;-77
2021/03/02 07:24:26;;;;;;;71.20;38.67;;;;;;;0.98;82.91;100774.48;123822;1102;64905;-79
2021/03/02 07:26:57;;;;;;;74.85;38.85;;;;;;;1.07;83.02;100769.22;123820;1102;64998;-77
2021/03/02 07:29:23;;;;;;;73.77;41.93;;;;;;;1.13;82.49;100771.83;123815;1102;64965;-77
2021/03/02 07:31:50;;;;;;;81.17;45.00;;;;;;;1.25;83.09;100771.84;123792;1102;65014;-78
2021/03/02 07:34:16;;;;;;;71.70;39.43;;;;;;;1.47;82.69;100767.44;123779;1102;64825;-78
2021/03/02 07:36:44;;;;;;;75.83;41.30;;;;;;;1.59;82.58;100766.55;123819;1102;65257;-78
2021/03/02 07:39:14;;;;;;;77.77;42.57;;;;;;;1.62;81.86;100766.55;123409;1102;64991;-78
2021/03/02 07:41:41;;;;;;;73.13;40.97;;;;;;;1.71;82.33;100763.02;123817;1100;65248;-77
2021/03/02 07:44:08;;;;;;;70.73;42.50;;;;;;;1.87;81.54;100766.48;123773;1102;64876;-77
2021/03/02 07:46:38;;;;;;;76.57;45.27;;;;;;;1.95;82.09;100775.24;123390;1102;64940;-78
2021/03/02 07:49:28;;;;;;;75.00;40.80;;;;;;;1.98;81.49;100773.47;123812;1102;64936;-78
2021/03/02 07:52:00;;;;;;;74.40;44.40;;;;;;;2.02;82.12;100773.45;123761;1101;64934;-79
2021/03/02 07:54:35;;;;;;;70.50;38.63;;;;;;;2.13;81.74;100766.39;123427;1102;65020;-79
2021/03/02 07:57:18;;;;;;;80.73;44.03;;;;;;;2.27;81.89;100769.85;123461;1102;64918;-79
2021/03/02 07:59:46;;;;;;;72.27;42.47;;;;;;;2.44;80.97;100764.49;123820;1102;64905;-78
2021/03/02 08:02:21;;;;;;;84.47;47.80;;;;;;;2.60;80.98;100755.63;123746;1102;64908;-79
2021/03/02 08:04:49;;;;;;;86.80;48.90;;;;;;;2.72;81.18;100757.32;123436;1102;65065;-78
2021/03/02 08:07:26;;;;;;;88.27;49.97;;;;;;;2.71;80.99;100763.45;123834;1102;64972;-78
2021/03/02 08:09:58;;;;;;;92.37;50.47;;;;;;;2.74;80.58;100765.19;123847;1102;64934;-77
2021/03/02 08:12:36;;;;;;;93.43;51.53;;;;;;;2.73;80.35;100760.82;123761;1102;64902;-77
2021/03/02 08:15:12;;;;;;;95.73;50.53;;;;;;;2.70;80.35;100756.45;123790;1102;65007;-77
2021/03/02 08:17:38;;;;;;;86.93;48.30;;;;;;;2.64;80.13;100767.03;123785;1102;64883;-76
2021/03/02 08:20:09;;;;;;;93.10;52.80;;;;;;;2.68;80.38;100767.88;123826;1101;64902;-77
2021/03/02 08:22:42;;;;;;;97.55;51.80;;;;;;;2.77;80.24;100767.83;123811;1102;64908;-77
2021/03/02 08:25:11;;;;;;;91.35;50.15;;;;;;;2.85;80.81;100768.65;123794;1102;64886;-77
2021/03/02 08:27:45;;;;;;;104.03;56.57;;;;;;;3.02;80.42;100776.41;123867;1102;64863;-78
2021/03/02 08:30:22;;;;;;;92.85;51.15;;;;;;;3.17;80.23;100776.30;123845;1102;64898;-80
2021/03/02 08:32:49;;;;;;;92.57;50.83;;;;;;;3.12;79.66;100770.19;123888;1102;64930;-78
2021/03/02 08:35:20;;;;;;;94.83;53.70;;;;;;;3.07;79.82;100769.35;123483;1102;65019;-76
2021/03/02 08:37:49;;;;;;;94.07;53.93;;;;;;;3.05;80.11;100764.12;123772;1102;65237;-77
2021/03/02 08:40:43;;;;;;;96.03;53.37;;;;;;;3.10;80.05;100765.83;123772;1102;64902;-77
2021/03/02 08:43:16;;;;;;;94.60;52.53;;;;;;;3.28;79.99;100769.17;123693;1102;65039;-79
2021/03/02 08:45:44;;;;;;;92.27;51.97;;;;;;;3.43;79.57;100770.81;123800;1102;65036;-77
2021/03/02 08:48:25;;;;;;;87.27;48.13;;;;;;;3.48;79.17;100773.41;123424;1102;64909;-78
2021/03/02 08:50:55;;;;;;;86.03;48.87;;;;;;;3.47;79.01;100772.51;123560;1102;64940;-77
2021/03/02 08:53:35;;;;;;;82.70;50.53;;;;;;;3.68;79.35;100774.06;123811;1102;64908;-77
2021/03/02 08:56:05;;;;;;;76.83;46.87;;;;;;;3.71;79.06;100783.70;123409;1102;64959;-77
2021/03/02 08:58:32;;;;;;;77.07;46.13;;;;;;;3.58;78.93;100775.08;123783;1102;64934;-77
2021/03/02 09:01:09;;;;;;;71.00;41.37;;;;;;;3.62;79.19;100783.81;123742;1102;64939;-76
2021/03/02 09:03:41;;;;;;;75.83;44.77;;;;;;;3.68;79.46;100784.61;123839;1102;64910;-76
2021/03/02 09:06:22;;;;;;;76.50;45.60;;;;;;;3.79;80.12;100768.71;123422;1102;64924;-77
2021/03/02 09:09:00;;;;;;;73.67;43.60;;;;;;;3.87;79.68;100772.13;123778;1102;65026;-77
2021/03/02 09:11:37;;;;;;;80.55;47.20;;;;;;;3.95;79.98;100769.41;123827;1102;64885;-78
2021/03/02 09:14:17;;;;;;;82.80;47.13;;;;;;;4.06;80.33;100764.88;123785;1101;64899;-77
2021/03/02 09:16:46;;;;;;;83.70;50.40;;;;;;;4.11;80.05;100760.42;123832;1102;64902;-77
2021/03/02 09:19:22;;;;;;;85.20;50.97;;;;;;;4.21;80.52;100757.66;123785;1102;64978;-77
2021/03/02 09:21:50;;;;;;;93.03;52.33;;;;;;;4.25;80.32;100762.87;123765;1102;65019;-78
2021/03/02 09:24:23;;;;;;;91.90;52.33;;;;;;;4.27;79.87;100753.19;123831;1102;65011;-77
2021/03/02 09:27:00;;;;;;;90.67;50.13;;;;;;;4.33;79.89;100761.02;123466;1102;64957;-76
2021/03/02 09:29:29;;;;;;;90.50;52.77;;;;;;;4.38;80.12;100761.83;123797;1102;65444;-77
2021/03/02 09:31:58;;;;;;;93.95;51.05;;;;;;;4.46;79.76;100750.30;123829;1102;64899;-77
2021/03/02 09:34:38;;;;;;;90.30;53.57;;;;;;;4.55;79.94;100747.52;123814;1102;64921;-77
2021/03/02 09:37:10;;;;;;;98.47;53.60;;;;;;;4.69;79.62;100760.55;123818;1102;64947;-76
2021/03/02 09:39:41;;;;;;;90.50;51.60;;;;;;;4.78;80.12;100753.34;123807;1102;64937;-77
2021/03/02 09:42:23;;;;;;;89.90;51.60;;;;;;;4.91;79.92;100754.03;123797;1102;64899;-77
2021/03/02 09:44:52;;;;;;;89.57;50.03;;;;;;;5.03;80.02;100748.56;123482;1102;64876;-77
2021/03/02 09:47:28;;;;;;;89.97;49.50;;;;;;;5.16;79.60;100746.59;123463;1102;65352;-77
2021/03/02 09:50:16;;;;;;;82.15;45.50;;;;;;;5.25;79.64;100748.20;123815;1101;64894;-78
2021/03/02 09:52:44;;;;;;;85.07;46.23;;;;;;;5.33;79.55;100751.58;123780;1102;64825;-76
2021/03/02 09:55:15;;;;;;;82.83;46.33;;;;;;;5.44;79.50;100752.27;123783;1102;64882;-76
2021/03/02 09:58:01;;;;;;;88.90;48.23;;;;;;;5.56;79.45;100745.90;123779;1102;64927;-77
2021/03/02 10:00:31;;;;;;;88.37;51.87;;;;;;;5.73;79.37;100742.92;123835;1101;64969;-77
2021/03/02 10:03:04;;;;;;;90.27;51.97;;;;;;;5.93;78.89;100731.97;123824;1102;64853;-77
2021/03/02 10:05:31;;;;;;;80.70;47.27;;;;;;;6.10;79.06;100735.16;123770;1102;64876;-77
2021/03/02 10:07:59;;;;;;;86.80;49.55;;;;;;;6.30;78.91;100739.19;123793;1102;64937;-77
2021/03/02 10:10:39;;;;;;;89.40;50.43;;;;;;;6.47;78.68;100737.02;123848;1102;64930;-78
2021/03/02 10:13:05;;;;;;;83.63;50.87;;;;;;;6.67;78.00;100736.58;123812;1102;64905;-77
2021/03/02 10:15:33;;;;;;;85.77;48.90;;;;;;;6.85;78.01;100735.29;123499;1105;65343;-77
2021/03/02 10:18:23;;;;;;;70.03;43.37;;;;;;;6.94;76.24;100745.66;123844;1102;64902;-77
2021/03/02 10:21:08;;;;;;;80.67;45.70;;;;;;;7.06;77.18;100736.55;123792;1101;64949;-77
2021/03/02 10:23:46;;;;;;;71.57;43.17;;;;;;;7.30;77.17;100742.16;123871;1102;64981;-77
2021/03/02 10:26:20;;;;;;;69.00;41.43;;;;;;;7.44;75.82;100735.56;123760;1101;65049;-77
2021/03/02 10:28:47;;;;;;;72.23;43.80;;;;;;;7.59;74.66;100736.09;123496;1102;65023;-78
2021/03/02 10:31:13;;;;;;;66.27;41.37;;;;;;;7.73;76.01;100733.92;123401;1102;64860;-78
2021/03/02 10:33:40;;;;;;;73.07;41.93;;;;;;;7.95;76.23;100728.87;123404;1102;64911;-79
2021/03/02 10:36:45;;;;;;;65.03;40.97;;;;;;;8.14;76.06;100729.24;123409;1102;64934;-77
2021/03/02 10:39:15;;;;;;;54.47;34.10;;;;;;;8.38;75.38;100721.47;123379;1102;65000;-79
2021/03/02 10:41:51;;;;;;;51.40;33.17;;;;;;;8.61;75.51;100713.69;123811;1102;64857;-78
2021/03/02 10:44:32;;;;;;;49.85;32.05;;;;;;;8.77;74.22;100706.97;123793;1102;64927;-78
2021/03/02 10:46:59;;;;;;;45.67;31.17;;;;;;;8.91;74.17;100703.85;123788;1102;64931;-78
2021/03/02 10:49:25;;;;;;;43.30;30.07;;;;;;;9.07;73.82;100698.89;123793;1102;65352;-78
2021/03/02 10:51:52;;;;;;;46.10;27.03;;;;;;;9.22;71.12;100693.06;123793;1102;65058;-78
2021/03/02 10:54:18;;;;;;;37.20;24.65;;;;;;;9.32;71.19;100695.39;123798;1102;64912;-78
2021/03/02 10:56:44;;;;;;;39.47;27.10;;;;;;;9.38;71.20;100692.55;123776;1101;65342;-77
2021/03/02 10:59:11;;;;;;;39.57;25.73;;;;;;;9.41;70.80;100673.80;123822;1102;64844;-78
2021/03/02 11:01:38;;;;;;;37.45;26.40;;;;;;;9.52;69.94;100682.27;123405;1102;64882;-78
2021/03/02 11:04:04;;;;;;;39.77;26.57;;;;;;;9.62;69.89;100673.03;123389;1102;64988;-78
2021/03/02 11:06:31;;;;;;;35.75;26.00;;;;;;;9.72;69.90;100664.73;123414;1102;65052;-77
2021/03/02 11:08:58;;;;;;;37.83;24.90;;;;;;;9.91;70.57;100670.23;123762;1102;64985;-77
2021/03/02 11:11:25;;;;;;;41.17;26.13;;;;;;;10.05;70.27;100665.24;123745;1102;64899;-78
2021/03/02 11:13:51;;;;;;;33.80;24.23;;;;;;;10.16;68.30;100670.16;123770;1102;64912;-78